createdAt,value
2019-02-05T00:00:56.415Z,126.47
2019-02-05T00:03:44.889Z,136.10
2019-02-05T00:06:26.073Z,136.57
2019-02-05T00:09:07.259Z,129.47
2019-02-05T00:11:48.499Z,134.23
2019-02-05T00:14:29.873Z,129.53
2019-02-05T00:17:11.194Z,137.40
2019-02-05T00:19:52.491Z,137.20
2019-02-05T00:22:33.561Z,132.73
2019-02-05T00:25:14.299Z,133.97
2019-02-05T00:27:55.775Z,140.80
2019-02-05T00:30:36.743Z,138.27
2019-02-05T00:33:17.808Z,139.83
2019-02-05T00:35:59.174Z,137.63
2019-02-05T00:38:40.483Z,134.33
2019-02-05T00:41:21.686Z,137.10
2019-02-05T00:44:02.330Z,136.83
2019-02-05T00:46:43.591Z,128.77
2019-02-05T00:49:24.652Z,132.47
2019-02-05T00:52:05.477Z,133.03
2019-02-05T00:54:34.917Z,134.07
2019-02-05T00:57:23.296Z,133.37
2019-02-05T01:00:14.520Z,131.17
2019-02-05T01:02:55.687Z,122.90
2019-02-05T01:05:36.428Z,134.27
2019-02-05T01:08:18.039Z,134.70
2019-02-05T01:10:57.616Z,131.80
2019-02-05T01:13:46.021Z,138.10
2019-02-05T01:16:15.671Z,129.53
2019-02-05T01:19:04.171Z,124.43
2019-02-05T01:21:45.241Z,125.97
2019-02-05T01:24:25.899Z,126.30
2019-02-05T01:27:06.608Z,133.67
2019-02-05T01:29:47.707Z,129.53
2019-02-05T01:32:29.348Z,131.67
2019-02-05T01:34:58.548Z,137.40
2019-02-05T01:37:46.984Z,137.03
2019-02-05T01:40:35.487Z,135.17
2019-02-05T01:43:16.565Z,133.83
2019-02-05T01:45:57.924Z,136.50
2019-02-05T01:48:39.384Z,131.00
2019-02-05T01:51:20.842Z,131.83
2019-02-05T01:54:01.948Z,133.77
2019-02-05T01:56:43.566Z,131.67
2019-02-05T01:59:24.835Z,133.30
2019-02-05T02:01:54.046Z,137.03
2019-02-05T02:04:42.538Z,131.43
2019-02-05T02:07:30.994Z,127.63
2019-02-05T02:10:12.066Z,142.10
2019-02-05T02:12:53.435Z,135.90
2019-02-05T02:15:34.726Z,140.33
2019-02-05T02:18:15.683Z,134.20
2019-02-05T02:20:56.321Z,146.10
2019-02-05T02:23:37.373Z,131.63
2019-02-05T02:26:18.400Z,128.87
2019-02-05T02:28:59.569Z,119.63
2019-02-05T02:31:40.546Z,123.90
2019-02-05T02:34:21.832Z,119.63
2019-02-05T02:37:03.248Z,115.50
2019-02-05T02:39:32.833Z,119.47
2019-02-05T02:42:21.309Z,141.40
2019-02-05T02:45:10.612Z,150.00
2019-02-05T02:47:51.590Z,150.47
2019-02-05T02:50:32.512Z,150.17
2019-02-05T02:53:13.227Z,148.10
2019-02-05T02:59:04.788Z,152.93
2019-02-05T03:01:45.430Z,147.17
2019-02-05T03:04:26.248Z,152.80
2019-02-05T03:07:06.950Z,155.40
2019-02-05T03:09:48.327Z,160.23
2019-02-05T03:12:29.890Z,162.87
2019-02-05T03:15:10.810Z,172.07
2019-02-05T03:17:50.517Z,166.07
2019-02-05T03:20:32.220Z,164.53
2019-02-05T03:23:13.730Z,172.13
2019-02-05T03:25:43.822Z,166.60
2019-02-05T03:28:32.302Z,168.60
2019-02-05T03:31:22.327Z,164.00
2019-02-05T03:34:02.982Z,169.43
2019-02-05T03:36:43.856Z,170.13
2019-02-05T03:39:23.420Z,149.57
2019-02-05T03:42:06.528Z,162.40
2019-02-05T03:44:47.266Z,156.57
2019-02-05T03:47:28.523Z,147.37
2019-02-05T03:50:09.971Z,135.53
2019-02-05T03:52:50.683Z,144.97
2019-02-05T03:55:32.390Z,150.77
2019-02-05T03:58:25.152Z,164.93
2019-02-05T04:01:32.679Z,183.97
2019-02-05T04:04:13.941Z,183.03
2019-02-05T04:06:55.128Z,133.93
2019-02-05T04:09:36.448Z,149.53
2019-02-05T04:12:17.424Z,142.07
2019-02-05T04:14:58.522Z,109.40
2019-02-05T04:18:06.289Z,175.97
2019-02-05T04:21:13.827Z,186.77
2019-02-05T04:23:54.624Z,192.10
2019-02-05T04:26:36.223Z,200.50
2019-02-05T04:29:17.095Z,196.90
2019-02-05T04:31:57.909Z,213.67
2019-02-05T04:35:05.642Z,207.17
2019-02-05T04:37:46.491Z,212.63
2019-02-05T04:40:28.036Z,185.67
2019-02-05T04:43:09.302Z,188.87
2019-02-05T04:45:50.545Z,175.03
2019-02-05T04:48:31.333Z,164.17
2019-02-05T04:51:12.389Z,194.77
2019-02-05T04:53:53.841Z,219.13
2019-02-05T04:56:34.785Z,200.53
2019-02-05T04:59:15.793Z,247.63
2019-02-05T05:01:57.137Z,243.17
2019-02-05T05:04:38.373Z,248.30
2019-02-05T05:07:40.454Z,264.80
2019-02-05T05:10:28.865Z,264.87
2019-02-05T05:13:10.008Z,278.40
2019-02-05T05:15:51.242Z,285.07
2019-02-05T05:18:32.705Z,304.23
2019-02-05T05:21:14.124Z,301.00
2019-02-05T05:23:55.284Z,310.23
2019-02-05T05:26:36.502Z,329.13
2019-02-05T05:29:17.157Z,311.33
2019-02-05T05:31:57.196Z,334.30
2019-02-05T05:34:38.030Z,332.20
2019-02-05T05:37:18.975Z,342.77
2019-02-05T05:40:00.371Z,359.10
2019-02-05T05:45:43.631Z,312.53
2019-02-05T05:48:25.048Z,328.23
2019-02-05T05:51:06.014Z,333.00
2019-02-05T05:53:47.503Z,337.93
2019-02-05T05:56:28.671Z,327.60
2019-02-05T05:59:10.251Z,350.47
2019-02-05T06:01:51.459Z,339.77
2019-02-05T06:04:32.629Z,325.97
2019-02-05T06:07:13.991Z,342.63
2019-02-05T06:09:55.280Z,333.47
2019-02-05T06:12:36.435Z,327.07
2019-02-05T06:15:17.972Z,318.80
2019-02-05T06:17:59.407Z,314.07
2019-02-05T06:20:40.421Z,313.17
2019-02-05T06:23:21.753Z,278.87
2019-02-05T06:26:03.204Z,292.13
2019-02-05T06:28:44.368Z,257.17
2019-02-05T06:31:13.876Z,265.17
2019-02-05T06:34:02.294Z,305.40
2019-02-05T06:36:50.712Z,280.40
2019-02-05T06:39:32.180Z,289.17
2019-02-05T06:42:13.716Z,274.73
2019-02-05T06:44:54.460Z,286.70
2019-02-05T06:47:35.924Z,292.80
2019-02-05T06:50:18.159Z,299.53
2019-02-05T06:52:58.907Z,273.53
2019-02-05T06:55:40.565Z,244.63
2019-02-05T06:58:21.838Z,255.23
2019-02-05T07:01:03.343Z,249.97
2019-02-05T07:03:44.535Z,231.07
2019-02-05T07:06:25.323Z,224.00
2019-02-05T07:09:06.486Z,257.80
2019-02-05T07:11:47.773Z,272.20
2019-02-05T07:14:28.756Z,291.10
2019-02-05T07:17:10.126Z,284.57
2019-02-05T07:19:51.674Z,290.13
2019-02-05T07:22:32.675Z,276.33
2019-02-05T07:25:13.679Z,293.60
2019-02-05T07:27:55.296Z,303.80
2019-02-05T07:30:36.518Z,309.47
2019-02-05T07:33:17.910Z,301.27
2019-02-05T07:35:59.396Z,278.73
2019-02-05T07:38:40.519Z,317.03
2019-02-05T07:41:21.785Z,317.50
2019-02-05T07:44:03.179Z,311.47
2019-02-05T07:46:44.292Z,323.30
2019-02-05T07:49:25.331Z,321.47
2019-02-05T07:52:06.674Z,342.03
2019-02-05T07:54:48.063Z,332.30
2019-02-05T08:00:26.114Z,347.20
2019-02-05T08:03:07.169Z,348.97
2019-02-05T08:05:48.590Z,379.33
2019-02-05T08:08:29.728Z,369.97
2019-02-05T08:11:10.647Z,335.60
2019-02-05T08:13:52.087Z,370.27
2019-02-05T08:16:34.064Z,334.93
2019-02-05T08:19:14.954Z,365.37
2019-02-05T08:21:55.999Z,350.60
2019-02-05T08:24:37.408Z,349.17
2019-02-05T08:27:18.384Z,354.60
2019-02-05T08:29:59.696Z,372.23
2019-02-05T08:32:41.074Z,378.00
2019-02-05T08:35:11.040Z,374.27
2019-02-05T08:37:59.461Z,373.23
2019-02-05T08:40:59.872Z,372.00
2019-02-05T08:43:30.930Z,370.20
2019-02-05T08:46:12.219Z,341.93
2019-02-05T08:48:53.447Z,358.13
2019-02-05T08:51:34.160Z,372.90
2019-02-05T08:54:14.807Z,283.20
2019-02-05T08:56:55.522Z,311.17
2019-02-05T08:59:36.823Z,290.20
2019-02-05T09:02:18.307Z,330.83
2019-02-05T09:04:59.693Z,332.27
2019-02-05T09:07:41.137Z,339.00
2019-02-05T09:10:22.375Z,334.23
2019-02-05T09:13:03.509Z,332.53
2019-02-05T09:15:44.534Z,336.30
2019-02-05T09:18:25.588Z,336.13
2019-02-05T09:21:06.564Z,323.60
2019-02-05T09:23:47.828Z,320.87
2019-02-05T09:26:29.164Z,322.67
2019-02-05T09:29:10.330Z,339.17
2019-02-05T09:31:51.864Z,337.60
2019-02-05T09:34:32.724Z,325.67
2019-02-05T09:37:13.639Z,341.30
2019-02-05T09:39:54.750Z,312.07
2019-02-05T09:42:34.237Z,334.90
2019-02-05T09:45:23.512Z,290.53
2019-02-05T09:48:06.464Z,302.17
2019-02-05T09:50:47.541Z,282.80
2019-02-05T09:53:28.792Z,269.43
2019-02-05T09:56:10.104Z,280.10
2019-02-05T09:58:51.728Z,283.83
2019-02-05T10:01:32.463Z,263.93
2019-02-05T10:04:01.721Z,259.20
2019-02-05T10:07:02.098Z,239.63
2019-02-05T10:09:33.014Z,240.23
2019-02-05T10:12:13.991Z,243.20
2019-02-05T10:14:55.368Z,244.20
2019-02-05T10:17:36.714Z,239.73
2019-02-05T10:20:17.983Z,220.67
2019-02-05T10:22:58.992Z,221.57
2019-02-05T10:25:40.589Z,233.87
2019-02-05T10:28:21.986Z,209.83
2019-02-05T10:30:51.754Z,205.73
2019-02-05T10:33:40.292Z,214.67
2019-02-05T10:36:21.260Z,232.53
2019-02-05T10:39:02.918Z,210.67
2019-02-05T10:41:44.156Z,188.73
2019-02-05T10:44:25.333Z,173.73
2019-02-05T10:47:06.516Z,173.77
2019-02-05T10:53:04.241Z,166.00
2019-02-05T10:55:45.234Z,143.30
2019-02-05T10:58:26.658Z,139.03
2019-02-05T11:01:07.432Z,135.73
2019-02-05T11:03:47.045Z,127.00
2019-02-05T11:06:47.882Z,138.43
2019-02-05T11:09:18.713Z,134.17
2019-02-05T11:11:59.855Z,132.40
2019-02-05T11:14:40.738Z,133.30
2019-02-05T11:17:21.762Z,135.40
2019-02-05T11:20:03.170Z,124.73
2019-02-05T11:22:44.449Z,125.47
2019-02-05T11:25:25.997Z,108.63
2019-02-05T11:31:16.233Z,93.87
2019-02-05T11:33:57.341Z,106.03
2019-02-05T11:36:38.381Z,109.80
2019-02-05T11:42:33.425Z,101.37
2019-02-05T11:45:14.567Z,100.40
2019-02-05T11:47:55.253Z,112.33
2019-02-05T11:50:24.501Z,94.40
2019-02-05T11:53:14.902Z,91.43
2019-02-05T11:56:03.473Z,76.80
2019-02-05T11:58:51.983Z,87.07
2019-02-05T12:01:39.147Z,90.10
2019-02-05T12:04:18.679Z,89.93
2019-02-05T12:06:59.976Z,96.03
2019-02-05T12:09:41.346Z,94.87
2019-02-05T12:12:22.643Z,99.03
2019-02-05T12:15:04.146Z,92.43
2019-02-05T12:17:45.708Z,90.93
2019-02-05T12:20:27.152Z,99.47
2019-02-05T12:22:56.399Z,102.87
2019-02-05T12:25:44.824Z,109.77
2019-02-05T12:28:33.264Z,116.73
2019-02-05T12:31:14.655Z,120.60
2019-02-05T12:33:55.851Z,113.57
2019-02-05T12:36:25.761Z,114.87
2019-02-05T12:39:33.285Z,124.47
2019-02-05T12:42:14.526Z,106.97
2019-02-05T12:44:55.635Z,104.30
2019-02-05T12:47:35.199Z,113.90
2019-02-05T12:53:27.975Z,111.73
2019-02-05T12:56:09.301Z,100.73
2019-02-05T12:58:50.607Z,98.27
2019-02-05T13:01:31.891Z,108.17
2019-02-05T13:04:12.843Z,117.97
2019-02-05T13:06:53.878Z,120.93
2019-02-05T13:09:34.735Z,118.93
2019-02-05T13:15:02.993Z,119.90
2019-02-05T13:17:51.673Z,119.90
2019-02-05T13:20:32.966Z,118.17
2019-02-05T13:23:14.146Z,119.83
2019-02-05T13:25:55.526Z,123.03
2019-02-05T13:28:36.249Z,126.67
2019-02-05T13:31:17.308Z,121.17
2019-02-05T13:33:58.527Z,111.87
2019-02-05T13:36:39.390Z,117.53
2019-02-05T13:39:20.095Z,102.83
2019-02-05T13:42:01.242Z,99.03
2019-02-05T13:44:42.415Z,98.00
2019-02-05T13:47:24.787Z,93.67
2019-02-05T13:50:05.951Z,89.07
2019-02-05T13:52:46.843Z,91.40
2019-02-05T13:55:27.789Z,95.50
2019-02-05T13:58:09.137Z,95.17
2019-02-05T14:00:50.219Z,101.30
2019-02-05T14:03:29.855Z,108.47
2019-02-05T14:06:18.375Z,103.83
2019-02-05T14:09:09.974Z,103.73
2019-02-05T14:11:42.039Z,95.27
2019-02-05T14:14:23.292Z,89.67
2019-02-05T14:17:04.871Z,97.33
2019-02-05T14:19:46.316Z,95.50
2019-02-05T14:22:27.372Z,97.33
2019-02-05T14:25:08.326Z,89.43
2019-02-05T14:30:50.452Z,87.60
2019-02-05T14:33:31.216Z,88.90
2019-02-05T14:36:12.402Z,85.60
2019-02-05T14:38:53.850Z,93.37
2019-02-05T14:41:34.986Z,94.70
2019-02-05T14:44:16.404Z,96.93
2019-02-05T14:46:57.928Z,103.97
2019-02-05T14:49:39.436Z,106.87
2019-02-05T14:52:20.767Z,100.90
2019-02-05T14:55:02.267Z,90.93
2019-02-05T14:57:31.534Z,95.37
2019-02-05T15:00:21.608Z,100.47
2019-02-05T15:03:02.569Z,92.33
2019-02-05T15:05:43.587Z,104.67
2019-02-05T15:08:24.344Z,113.47
2019-02-05T15:11:05.515Z,95.67
2019-02-05T15:13:46.888Z,99.83
2019-02-05T15:16:27.982Z,100.10
2019-02-05T15:19:09.399Z,104.67
2019-02-05T15:21:50.923Z,92.83
2019-02-05T15:24:37.480Z,95.40
2019-02-05T15:27:13.444Z,91.30
2019-02-05T15:30:01.942Z,77.33
2019-02-05T15:33:05.093Z,83.20
2019-02-05T15:35:50.495Z,85.00
2019-02-05T15:38:31.491Z,80.53
2019-02-05T15:41:11.132Z,85.13
2019-02-05T15:43:50.668Z,88.03
2019-02-05T15:46:20.186Z,85.00
2019-02-05T15:48:51.639Z,85.73
2019-02-05T15:51:41.162Z,83.67
2019-02-05T15:54:21.925Z,84.10
2019-02-05T15:56:51.810Z,87.53
2019-02-05T16:02:40.845Z,86.17
2019-02-05T16:05:30.984Z,78.03
2019-02-05T16:11:07.667Z,75.90
2019-02-05T16:13:56.229Z,76.73
2019-02-05T16:16:38.820Z,79.63
2019-02-05T16:19:08.337Z,98.33
2019-02-05T16:21:37.996Z,109.10
2019-02-05T16:24:07.163Z,103.10
2019-02-05T16:26:55.545Z,107.43
2019-02-05T16:29:36.941Z,111.53
2019-02-05T16:32:18.083Z,121.97
2019-02-05T16:34:59.026Z,113.90
2019-02-05T16:37:40.228Z,116.17
2019-02-05T16:40:20.996Z,120.73
2019-02-05T16:42:50.560Z,107.67
2019-02-05T16:45:38.980Z,101.07
2019-02-05T16:48:19.954Z,94.60
2019-02-05T16:51:00.599Z,88.90
2019-02-05T16:53:41.655Z,84.20
2019-02-05T16:56:11.679Z,87.33
2019-02-05T16:59:00.061Z,87.20
2019-02-05T17:01:40.801Z,86.67
2019-02-05T17:04:22.084Z,86.30
2019-02-05T17:09:47.383Z,95.43
2019-02-05T17:12:36.099Z,92.93
2019-02-05T17:15:18.717Z,91.40
2019-02-05T17:17:59.427Z,95.97
2019-02-05T17:20:40.665Z,93.00
2019-02-05T17:23:21.928Z,91.57
2019-02-05T17:26:03.196Z,105.07
2019-02-05T17:28:44.156Z,106.90
2019-02-05T17:31:25.299Z,113.93
2019-02-05T17:34:06.528Z,121.73
2019-02-05T17:36:47.701Z,125.70
2019-02-05T17:39:29.797Z,124.77
2019-02-05T17:42:11.248Z,134.23
2019-02-05T17:44:52.144Z,148.50
2019-02-05T17:47:33.588Z,156.13
2019-02-05T17:50:14.313Z,169.50
2019-02-05T17:52:55.783Z,172.77
2019-02-05T17:55:25.088Z,170.03
2019-02-05T17:57:55.056Z,170.97
2019-02-05T18:01:02.519Z,164.90
2019-02-05T18:06:51.179Z,156.90
2019-02-05T18:09:32.583Z,155.40
2019-02-05T18:12:14.247Z,144.90
2019-02-05T18:15:02.874Z,141.90
2019-02-05T18:17:44.042Z,141.67
2019-02-05T18:20:24.997Z,133.00
2019-02-05T18:23:05.980Z,134.33
2019-02-05T18:25:47.329Z,127.27
2019-02-05T18:28:30.893Z,131.80
2019-02-05T18:31:11.264Z,132.47
2019-02-05T18:33:52.935Z,134.27
2019-02-05T18:36:22.254Z,135.53
2019-02-05T18:39:10.812Z,125.70
2019-02-05T18:41:52.113Z,130.37
2019-02-05T18:44:33.579Z,135.47
2019-02-05T18:47:14.940Z,137.63
2019-02-05T18:49:56.479Z,140.10
2019-02-05T18:52:37.191Z,131.23
2019-02-05T18:55:10.435Z,122.43
2019-02-05T18:58:08.943Z,117.83
2019-02-05T19:00:41.330Z,125.53
2019-02-05T19:03:22.566Z,116.67
2019-02-05T19:06:04.039Z,112.07
2019-02-05T19:08:45.152Z,120.97
2019-02-05T19:11:26.599Z,135.10
2019-02-05T19:14:07.634Z,140.17
2019-02-05T19:16:49.080Z,145.93
2019-02-05T19:19:30.022Z,131.13
2019-02-05T19:22:10.733Z,131.73
2019-02-05T19:24:58.511Z,118.97
2019-02-05T19:27:39.283Z,115.20
2019-02-05T19:30:21.718Z,110.80
2019-02-05T19:32:51.260Z,114.27
2019-02-05T19:35:40.922Z,106.03
2019-02-05T19:38:29.385Z,102.80
2019-02-05T19:41:10.259Z,105.57
2019-02-05T19:43:50.072Z,108.83
2019-02-05T19:46:49.791Z,105.87
2019-02-05T19:49:36.342Z,98.00
2019-02-05T19:52:17.901Z,102.73
2019-02-05T19:54:59.398Z,97.17
2019-02-05T19:57:40.041Z,99.20
2019-02-05T20:00:21.719Z,94.23
2019-02-05T20:03:03.487Z,90.40
2019-02-05T20:05:45.740Z,89.37
2019-02-05T20:08:27.205Z,89.07
2019-02-05T20:11:08.792Z,85.60
2019-02-05T20:13:49.985Z,75.23
2019-02-05T20:16:31.127Z,61.77
2019-02-05T20:19:12.478Z,63.57
2019-02-05T20:21:53.508Z,63.10
2019-02-05T20:24:34.987Z,56.57
2019-02-05T20:27:15.766Z,47.57
2019-02-05T20:29:57.048Z,52.30
2019-02-05T20:32:38.436Z,51.23
2019-02-05T20:38:35.836Z,49.80
2019-02-05T20:41:16.942Z,38.77
2019-02-05T20:43:57.895Z,39.47
2019-02-05T20:46:39.306Z,39.10
2019-02-05T20:49:20.222Z,39.50
2019-02-05T20:52:01.536Z,37.93
2019-02-05T20:54:42.693Z,37.73
2019-02-05T20:57:23.669Z,36.27
2019-02-05T21:00:04.867Z,33.47
2019-02-05T21:02:46.143Z,39.83
2019-02-05T21:05:26.929Z,40.43
2019-02-05T21:08:08.159Z,38.37
2019-02-05T21:10:37.817Z,36.50
2019-02-05T21:13:26.381Z,35.87
2019-02-05T21:16:14.978Z,39.40
2019-02-05T21:18:55.756Z,40.23
2019-02-05T21:21:37.206Z,39.77
2019-02-05T21:24:18.788Z,40.33
2019-02-05T21:27:00.028Z,39.63
2019-02-05T21:29:40.705Z,40.63
2019-02-05T21:32:22.019Z,39.83
2019-02-05T21:35:03.418Z,42.10
2019-02-05T21:37:44.414Z,40.67
2019-02-05T21:40:25.869Z,40.10
2019-02-05T21:43:07.346Z,39.70
2019-02-05T21:45:48.462Z,42.03
2019-02-05T21:48:29.792Z,41.80
2019-02-05T21:51:10.521Z,36.23
2019-02-05T21:53:51.838Z,32.87
2019-02-05T21:56:33.002Z,38.70
2019-02-05T21:59:13.804Z,39.13
2019-02-05T22:01:54.580Z,43.30
2019-02-05T22:04:27.019Z,40.17
2019-02-05T22:07:14.020Z,38.03
2019-02-05T22:09:55.169Z,35.27
2019-02-05T22:12:35.873Z,31.50
2019-02-05T22:18:29.535Z,32.77
2019-02-05T22:21:10.764Z,29.40
2019-02-05T22:23:52.083Z,28.27
2019-02-05T22:26:32.951Z,28.90
2019-02-05T22:29:14.459Z,25.37
2019-02-05T22:31:55.894Z,26.13
2019-02-05T22:34:39.523Z,23.57
2019-02-05T22:37:19.984Z,26.83
2019-02-05T22:40:01.342Z,14.77
2019-02-05T22:42:42.704Z,27.03
2019-02-05T22:45:23.685Z,22.47
2019-02-05T22:48:04.587Z,26.97
2019-02-05T22:50:46.142Z,25.40
2019-02-05T22:53:27.654Z,28.27
2019-02-05T22:56:09.034Z,27.80
2019-02-05T22:58:50.270Z,28.80
2019-02-05T23:01:31.685Z,29.13
2019-02-05T23:04:12.838Z,26.57
2019-02-05T23:06:53.691Z,26.63
2019-02-05T23:09:34.387Z,28.80
2019-02-05T23:12:15.944Z,26.17
2019-02-05T23:14:57.249Z,28.67
2019-02-05T23:17:38.566Z,29.37
2019-02-05T23:20:11.753Z,26.97
2019-02-05T23:23:00.226Z,32.97
2019-02-05T23:25:48.670Z,28.60
2019-02-05T23:28:29.854Z,27.90
2019-02-05T23:31:11.088Z,28.50
2019-02-05T23:33:51.795Z,33.57
2019-02-05T23:36:32.990Z,31.57
2019-02-05T23:39:14.398Z,30.50
2019-02-05T23:41:55.512Z,28.30
2019-02-05T23:44:36.665Z,32.57
2019-02-05T23:47:06.031Z,32.37
2019-02-05T23:49:54.444Z,34.10
2019-02-05T23:52:43.181Z,26.73
2019-02-05T23:55:52.767Z,31.13
2019-02-05T23:58:41.190Z,28.97
